sensor_id;sensor_type;location;lat;lon;timestamp;pressure;altitude;pressure_sealevel;temperature;humidity
54194;BME280;40102;50.906;6.972;2024-02-04T00:00:17;101809.50;;;9.32;100.00
54194;BME280;40102;50.906;6.972;2024-02-04T00:02:43;101805.03;;;9.33;100.00
54194;BME280;40102;50.906;6.972;2024-02-04T00:05:08;101801.44;;;9.34;100.00
54194;BME280;40102;50.906;6.972;2024-02-04T00:07:34;101801.44;;;9.34;100.00
54194;BME280;40102;50.906;6.972;2024-02-04T00:09:59;101801.38;;;9.35;100.00
54194;BME280;40102;50.906;6.972;2024-02-04T00:12:25;101802.25;;;9.36;100.00
54194;BME280;40102;50.906;6.972;2024-02-04T00:14:50;101784.44;;;9.36;100.00
54194;BME280;40102;50.906;6.972;2024-02-04T00:17:16;101797.03;;;9.33;100.00
54194;BME280;40102;50.906;6.972;2024-02-04T00:19:42;101785.47;;;9.32;100.00
54194;BME280;40102;50.906;6.972;2024-02-04T00:22:07;101789.06;;;9.31;100.00
54194;BME280;40102;50.906;6.972;2024-02-04T00:24:33;101780.94;;;9.34;100.00
54194;BME280;40102;50.906;6.972;2024-02-04T00:26:58;101772.94;;;9.34;100.00
54194;BME280;40102;50.906;6.972;2024-02-04T00:29:23;101762.31;;;9.33;100.00
54194;BME280;40102;50.906;6.972;2024-02-04T00:31:49;101771.19;;;9.33;100.00
54194;BME280;40102;50.906;6.972;2024-02-04T00:34:14;101770.28;;;9.34;100.00
54194;BME280;40102;50.906;6.972;2024-02-04T00:36:39;101771.28;;;9.30;100.00
54194;BME280;40102;50.906;6.972;2024-02-04T00:39:05;101774.91;;;9.29;100.00
54194;BME280;40102;50.906;6.972;2024-02-04T00:41:32;101765.25;;;9.25;100.00
54194;BME280;40102;50.906;6.972;2024-02-04T00:43:57;101770.47;;;9.28;100.00
54194;BME280;40102;50.906;6.972;2024-02-04T00:46:23;101766.94;;;9.28;100.00
54194;BME280;40102;50.906;6.972;2024-02-04T00:48:48;101773.16;;;9.28;100.00
54194;BME280;40102;50.906;6.972;2024-02-04T00:51:14;101778.50;;;9.28;100.00
54194;BME280;40102;50.906;6.972;2024-02-04T00:53:42;101759.09;;;9.23;100.00
54194;BME280;40102;50.906;6.972;2024-02-04T00:56:13;101765.19;;;9.27;100.00
54194;BME280;40102;50.906;6.972;2024-02-04T00:58:42;101770.47;;;9.28;100.00
54194;BME280;40102;50.906;6.972;2024-02-04T01:01:08;101767.00;;;9.26;100.00
54194;BME280;40102;50.906;6.972;2024-02-04T01:03:33;101761.69;;;9.25;100.00
54194;BME280;40102;50.906;6.972;2024-02-04T01:05:58;101762.63;;;9.24;100.00
54194;BME280;40102;50.906;6.972;2024-02-04T01:08:24;101759.03;;;9.25;100.00
54194;BME280;40102;50.906;6.972;2024-02-04T01:10:49;101761.75;;;9.23;100.00
54194;BME280;40102;50.906;6.972;2024-02-04T01:13:16;101763.59;;;9.21;100.00
54194;BME280;40102;50.906;6.972;2024-02-04T01:15:42;101766.16;;;9.24;100.00
54194;BME280;40102;50.906;6.972;2024-02-04T01:18:07;101761.75;;;9.23;100.00
54194;BME280;40102;50.906;6.972;2024-02-04T01:20:32;101774.13;;;9.26;100.00
54194;BME280;40102;50.906;6.972;2024-02-04T01:22:58;101774.13;;;9.26;100.00
54194;BME280;40102;50.906;6.972;2024-02-04T01:25:23;101761.81;;;9.22;100.00
54194;BME280;40102;50.906;6.972;2024-02-04T01:27:48;101771.59;;;9.21;100.00
54194;BME280;40102;50.906;6.972;2024-02-04T01:30:14;101773.25;;;9.25;100.00
54194;BME280;40102;50.906;6.972;2024-02-04T01:32:40;101774.94;;;9.28;100.00
54194;BME280;40102;50.906;6.972;2024-02-04T01:35:06;101770.53;;;9.27;100.00
54194;BME280;40102;50.906;6.972;2024-02-04T01:37:31;101773.19;;;9.27;100.00
54194;BME280;40102;50.906;6.972;2024-02-04T01:39:57;101758.06;;;9.27;100.00
54194;BME280;40102;50.906;6.972;2024-02-04T01:42:22;101762.72;;;9.21;100.00
54194;BME280;40102;50.906;6.972;2024-02-04T01:44:48;101754.72;;;9.21;100.00
54194;BME280;40102;50.906;6.972;2024-02-04T01:47:13;101760.78;;;9.26;100.00
54194;BME280;40102;50.906;6.972;2024-02-04T01:49:39;101763.50;;;9.24;100.00
54194;BME280;40102;50.906;6.972;2024-02-04T01:52:05;101765.19;;;9.27;100.00
54194;BME280;40102;50.906;6.972;2024-02-04T01:54:37;101761.59;;;9.28;100.00
54194;BME280;40102;50.906;6.972;2024-02-04T01:57:04;101754.56;;;9.25;100.00
54194;BME280;40102;50.906;6.972;2024-02-04T01:59:29;101755.66;;;9.20;100.00
54194;BME280;40102;50.906;6.972;2024-02-04T02:02:00;101744.03;;;9.21;100.00
54194;BME280;40102;50.906;6.972;2024-02-04T02:04:26;101750.09;;;9.26;100.00
54194;BME280;40102;50.906;6.972;2024-02-04T02:06:56;101751.13;;;9.22;100.00
54194;BME280;40102;50.906;6.972;2024-02-04T02:09:21;101748.50;;;9.20;100.00
54194;BME280;40102;50.906;6.972;2024-02-04T02:12:01;101753.84;;;9.20;100.00
54194;BME280;40102;50.906;6.972;2024-02-04T02:14:32;101754.78;;;9.19;100.00
54194;BME280;40102;50.906;6.972;2024-02-04T02:17:02;101741.63;;;9.13;100.00
54194;BME280;40102;50.906;6.972;2024-02-04T02:24:38;101741.44;;;9.19;100.00
54194;BME280;40102;50.906;6.972;2024-02-04T02:27:07;101734.34;;;9.18;100.00
54194;BME280;40102;50.906;6.972;2024-02-04T02:29:32;101728.06;;;9.19;100.00
54194;BME280;40102;50.906;6.972;2024-02-04T02:31:58;101729.00;;;9.18;100.00
54194;BME280;40102;50.906;6.972;2024-02-04T02:34:27;101728.91;;;9.21;100.00
54194;BME280;40102;50.906;6.972;2024-02-04T02:36:59;101719.25;;;9.17;100.00
54194;BME280;40102;50.906;6.972;2024-02-04T02:39:31;101725.47;;;9.18;100.00
54194;BME280;40102;50.906;6.972;2024-02-04T02:41:59;101725.50;;;9.16;100.00
54194;BME280;40102;50.906;6.972;2024-02-04T02:44:28;101722.78;;;9.18;100.00
54194;BME280;40102;50.906;6.972;2024-02-04T02:46:57;101721.09;;;9.15;100.00
54194;BME280;40102;50.906;6.972;2024-02-04T02:49:23;101718.31;;;9.18;100.00
54194;BME280;40102;50.906;6.972;2024-02-04T02:51:49;101727.03;;;9.23;100.00
54194;BME280;40102;50.906;6.972;2024-02-04T02:54:14;101720.69;;;9.27;100.00
54194;BME280;40102;50.906;6.972;2024-02-04T02:56:40;101724.31;;;9.25;100.00
54194;BME280;40102;50.906;6.972;2024-02-04T02:59:06;101718.94;;;9.26;100.00
54194;BME280;40102;50.906;6.972;2024-02-04T03:01:31;101724.38;;;9.23;100.00
54194;BME280;40102;50.906;6.972;2024-02-04T03:03:56;101740.28;;;9.26;100.00
54194;BME280;40102;50.906;6.972;2024-02-04T03:06:22;101725.84;;;9.32;100.00
54194;BME280;40102;50.906;6.972;2024-02-04T03:08:47;101723.19;;;9.32;100.00
54194;BME280;40102;50.906;6.972;2024-02-04T03:11:13;101721.50;;;9.29;100.00
54194;BME280;40102;50.906;6.972;2024-02-04T03:13:39;101717.13;;;9.27;100.00
54194;BME280;40102;50.906;6.972;2024-02-04T03:16:10;101723.34;;;9.27;100.00
54194;BME280;40102;50.906;6.972;2024-02-04T03:18:35;101715.19;;;9.32;100.00
54194;BME280;40102;50.906;6.972;2024-02-04T03:21:00;101715.13;;;9.33;100.00
54194;BME280;40102;50.906;6.972;2024-02-04T03:23:26;101712.56;;;9.30;100.00
54194;BME280;40102;50.906;6.972;2024-02-04T03:25:51;101721.44;;;9.31;100.00
54194;BME280;40102;50.906;6.972;2024-02-04T03:28:16;101718.72;;;9.32;100.00
54194;BME280;40102;50.906;6.972;2024-02-04T03:30:42;101720.19;;;9.41;100.00
54194;BME280;40102;50.906;6.972;2024-02-04T03:33:07;101713.22;;;9.37;100.00
54194;BME280;40102;50.906;6.972;2024-02-04T03:35:32;101718.72;;;9.32;100.00
54194;BME280;40102;50.906;6.972;2024-02-04T03:38:01;101723.91;;;9.37;100.00
54194;BME280;40102;50.906;6.972;2024-02-04T03:40:26;101727.50;;;9.36;100.00
54194;BME280;40102;50.906;6.972;2024-02-04T03:42:52;101707.00;;;9.36;100.00
54194;BME280;40102;50.906;6.972;2024-02-04T03:45:17;101712.34;;;9.36;100.00
54194;BME280;40102;50.906;6.972;2024-02-04T03:47:42;101713.22;;;9.37;100.00
54194;BME280;40102;50.906;6.972;2024-02-04T03:50:08;101718.41;;;9.41;100.00
54194;BME280;40102;50.906;6.972;2024-02-04T03:52:33;101705.09;;;9.40;100.00
54194;BME280;40102;50.906;6.972;2024-02-04T03:54:59;101719.38;;;9.39;100.00
54194;BME280;40102;50.906;6.972;2024-02-04T03:57:25;101722.06;;;9.39;100.00
54194;BME280;40102;50.906;6.972;2024-02-04T03:59:50;101721.19;;;9.38;100.00
54194;BME280;40102;50.906;6.972;2024-02-04T04:02:15;101715.41;;;9.51;100.00
54194;BME280;40102;50.906;6.972;2024-02-04T04:04:40;101699.59;;;9.45;100.00
54194;BME280;40102;50.906;6.972;2024-02-04T04:07:12;101704.13;;;9.43;100.00
54194;BME280;40102;50.906;6.972;2024-02-04T04:09:38;101696.06;;;9.44;100.00
54194;BME280;40102;50.906;6.972;2024-02-04T04:12:03;101696.16;;;9.41;100.00
54194;BME280;40102;50.906;6.972;2024-02-04T04:14:29;101699.66;;;9.43;100.00
54194;BME280;40102;50.906;6.972;2024-02-04T04:16:54;101701.50;;;9.41;100.00
54194;BME280;40102;50.906;6.972;2024-02-04T04:19:19;101709.47;;;9.43;100.00
54194;BME280;40102;50.906;6.972;2024-02-04T04:21:44;101705.75;;;9.47;100.00
54194;BME280;40102;50.906;6.972;2024-02-04T04:24:10;101705.00;;;9.43;100.00
54194;BME280;40102;50.906;6.972;2024-02-04T04:26:35;101714.81;;;9.43;100.00
54194;BME280;40102;50.906;6.972;2024-02-04T04:29:00;101721.72;;;9.48;100.00
54194;BME280;40102;50.906;6.972;2024-02-04T04:31:26;101723.41;;;9.51;100.00
54194;BME280;40102;50.906;6.972;2024-02-04T04:33:51;101712.03;;;9.46;100.00
54194;BME280;40102;50.906;6.972;2024-02-04T04:36:18;101744.03;;;9.47;100.00
54194;BME280;40102;50.906;6.972;2024-02-04T04:38:44;101719.13;;;9.47;100.00
54194;BME280;40102;50.906;6.972;2024-02-04T04:41:09;101722.75;;;9.44;100.00
54194;BME280;40102;50.906;6.972;2024-02-04T04:43:36;101724.13;;;9.56;100.00
54194;BME280;40102;50.906;6.972;2024-02-04T04:46:02;101728.66;;;9.54;100.00
54194;BME280;40102;50.906;6.972;2024-02-04T04:48:28;101726.19;;;9.48;100.00
54194;BME280;40102;50.906;6.972;2024-02-04T04:50:53;101738.56;;;9.50;100.00
54194;BME280;40102;50.906;6.972;2024-02-04T04:53:18;101747.50;;;9.49;100.00
54194;BME280;40102;50.906;6.972;2024-02-04T04:55:43;101748.50;;;9.47;100.00
54194;BME280;40102;50.906;6.972;2024-02-04T04:58:09;101754.66;;;9.49;100.00
54194;BME280;40102;50.906;6.972;2024-02-04T05:00:34;101736.00;;;9.47;100.00
54194;BME280;40102;50.906;6.972;2024-02-04T05:03:00;101744.78;;;9.51;100.00
54194;BME280;40102;50.906;6.972;2024-02-04T05:05:25;101742.16;;;9.49;100.00
54194;BME280;40102;50.906;6.972;2024-02-04T05:07:50;101730.63;;;9.49;100.00
54194;BME280;40102;50.906;6.972;2024-02-04T05:10:16;101719.88;;;9.50;100.00
54194;BME280;40102;50.906;6.972;2024-02-04T05:12:41;101719.97;;;9.47;100.00
54194;BME280;40102;50.906;6.972;2024-02-04T05:15:07;101734.00;;;9.54;100.00
54194;BME280;40102;50.906;6.972;2024-02-04T05:17:32;101708.31;;;9.50;100.00
54194;BME280;40102;50.906;6.972;2024-02-04T05:19:58;101719.97;;;9.47;100.00
54194;BME280;40102;50.906;6.972;2024-02-04T05:22:26;101720.91;;;9.46;100.00
54194;BME280;40102;50.906;6.972;2024-02-04T05:24:52;101711.91;;;9.49;100.00
54194;BME280;40102;50.906;6.972;2024-02-04T05:27:17;101721.69;;;9.50;100.00
54194;BME280;40102;50.906;6.972;2024-02-04T05:29:42;101714.53;;;9.50;100.00
54194;BME280;40102;50.906;6.972;2024-02-04T05:32:08;101709.25;;;9.49;100.00
54194;BME280;40102;50.906;6.972;2024-02-04T05:34:33;101708.44;;;9.47;100.00
54194;BME280;40102;50.906;6.972;2024-02-04T05:36:59;101715.63;;;9.45;100.00
54194;BME280;40102;50.906;6.972;2024-02-04T05:39:25;101713.59;;;9.51;100.00
54194;BME280;40102;50.906;6.972;2024-02-04T05:41:50;101717.16;;;9.52;100.00
54194;BME280;40102;50.906;6.972;2024-02-04T05:44:15;101715.41;;;9.51;100.00
54194;BME280;40102;50.906;6.972;2024-02-04T05:46:41;101720.63;;;9.54;100.00
54194;BME280;40102;50.906;6.972;2024-02-04T05:49:06;101706.56;;;9.49;100.00
54194;BME280;40102;50.906;6.972;2024-02-04T05:51:32;101726.97;;;9.51;100.00
54194;BME280;40102;50.906;6.972;2024-02-04T05:53:58;101711.75;;;9.53;100.00
54194;BME280;40102;50.906;6.972;2024-02-04T05:56:23;101703.03;;;9.48;100.00
54194;BME280;40102;50.906;6.972;2024-02-04T05:58:49;101707.28;;;9.54;100.00
54194;BME280;40102;50.906;6.972;2024-02-04T06:01:15;101701.94;;;9.54;100.00
54194;BME280;40102;50.906;6.972;2024-02-04T06:03:42;101699.28;;;9.54;100.00
54194;BME280;40102;50.906;6.972;2024-02-04T06:06:14;101700.16;;;9.54;100.00
54194;BME280;40102;50.906;6.972;2024-02-04T06:08:39;101706.47;;;9.52;100.00
54194;BME280;40102;50.906;6.972;2024-02-04T06:11:05;101686.97;;;9.50;100.00
54194;BME280;40102;50.906;6.972;2024-02-04T06:13:30;101681.66;;;9.48;100.00
54194;BME280;40102;50.906;6.972;2024-02-04T06:15:56;101666.53;;;9.49;100.00
54194;BME280;40102;50.906;6.972;2024-02-04T06:18:21;101672.69;;;9.51;100.00
54194;BME280;40102;50.906;6.972;2024-02-04T06:20:46;101680.69;;;9.51;100.00
54194;BME280;40102;50.906;6.972;2024-02-04T06:23:11;101676.97;;;9.55;100.00
54194;BME280;40102;50.906;6.972;2024-02-04T06:25:37;101674.13;;;9.59;100.00
54194;BME280;40102;50.906;6.972;2024-02-04T06:28:02;101685.00;;;9.55;100.00
54194;BME280;40102;50.906;6.972;2024-02-04T06:30:28;101684.06;;;9.56;100.00
54194;BME280;40102;50.906;6.972;2024-02-04T06:32:53;101684.06;;;9.56;100.00
54194;BME280;40102;50.906;6.972;2024-02-04T06:35:18;101701.94;;;9.54;100.00
54194;BME280;40102;50.906;6.972;2024-02-04T06:37:44;101689.34;;;9.57;100.00
54194;BME280;40102;50.906;6.972;2024-02-04T06:40:10;101677.91;;;9.54;100.00
54194;BME280;40102;50.906;6.972;2024-02-04T06:42:36;101678.00;;;9.51;100.00
54194;BME280;40102;50.906;6.972;2024-02-04T06:45:01;101682.31;;;9.55;100.00
54194;BME280;40102;50.906;6.972;2024-02-04T06:47:26;101678.94;;;9.50;100.00
54194;BME280;40102;50.906;6.972;2024-02-04T06:49:51;101677.03;;;9.53;100.00
54194;BME280;40102;50.906;6.972;2024-02-04T06:52:17;101661.78;;;9.57;100.00
54194;BME280;40102;50.906;6.972;2024-02-04T06:54:42;101677.91;;;9.54;100.00
54194;BME280;40102;50.906;6.972;2024-02-04T06:57:07;101679.53;;;9.58;100.00
54194;BME280;40102;50.906;6.972;2024-02-04T06:59:33;101671.53;;;9.58;100.00
54194;BME280;40102;50.906;6.972;2024-02-04T07:01:58;101669.19;;;9.49;100.00
54194;BME280;40102;50.906;6.972;2024-02-04T07:04:26;101686.84;;;9.53;100.00
54194;BME280;40102;50.906;6.972;2024-02-04T07:06:52;101686.84;;;9.53;100.00
54194;BME280;40102;50.906;6.972;2024-02-04T07:09:17;101686.03;;;9.51;100.00
54194;BME280;40102;50.906;6.972;2024-02-04T07:11:43;101683.19;;;9.55;100.00
54194;BME280;40102;50.906;6.972;2024-02-04T07:14:08;101668.38;;;9.47;100.00
54194;BME280;40102;50.906;6.972;2024-02-04T07:16:33;101671.09;;;9.45;100.00
54194;BME280;40102;50.906;6.972;2024-02-04T07:18:59;101657.69;;;9.47;100.00
54194;BME280;40102;50.906;6.972;2024-02-04T07:21:27;101662.97;;;9.48;100.00
54194;BME280;40102;50.906;6.972;2024-02-04T07:23:52;101647.06;;;9.45;100.00
54194;BME280;40102;50.906;6.972;2024-02-04T07:26:17;101653.34;;;9.44;100.00
54194;BME280;40102;50.906;6.972;2024-02-04T07:28:43;101660.53;;;9.42;100.00
54194;BME280;40102;50.906;6.972;2024-02-04T07:31:08;101655.13;;;9.44;100.00
54194;BME280;40102;50.906;6.972;2024-02-04T07:33:34;101644.50;;;9.42;100.00
54194;BME280;40102;50.906;6.972;2024-02-04T07:35:59;101655.25;;;9.40;100.00
54194;BME280;40102;50.906;6.972;2024-02-04T07:38:24;101660.59;;;9.40;100.00
54194;BME280;40102;50.906;6.972;2024-02-04T07:40:50;101665.97;;;9.39;100.00
54194;BME280;40102;50.906;6.972;2024-02-04T07:43:15;101688.97;;;9.43;100.00
54194;BME280;40102;50.906;6.972;2024-02-04T07:45:41;101680.84;;;9.46;100.00
54194;BME280;40102;50.906;6.972;2024-02-04T07:48:07;101663.97;;;9.46;100.00
54194;BME280;40102;50.906;6.972;2024-02-04T07:50:34;101665.75;;;9.45;100.00
54194;BME280;40102;50.906;6.972;2024-02-04T07:52:59;101664.88;;;9.45;100.00
54194;BME280;40102;50.906;6.972;2024-02-04T07:55:25;101678.41;;;9.40;100.00
54194;BME280;40102;50.906;6.972;2024-02-04T07:57:50;101696.00;;;9.46;100.00
54194;BME280;40102;50.906;6.972;2024-02-04T08:00:16;101682.81;;;9.41;100.00
54194;BME280;40102;50.906;6.972;2024-02-04T08:02:44;101683.47;;;9.48;100.00
54194;BME280;40102;50.906;6.972;2024-02-04T08:05:09;101659.59;;;9.43;100.00
54194;BME280;40102;50.906;6.972;2024-02-04T08:07:35;101671.03;;;9.47;100.00
54194;BME280;40102;50.906;6.972;2024-02-04T08:10:00;101669.31;;;9.46;100.00
54194;BME280;40102;50.906;6.972;2024-02-04T08:12:25;101672.13;;;9.41;100.00
54194;BME280;40102;50.906;6.972;2024-02-04T08:14:51;101666.91;;;9.38;100.00
54194;BME280;40102;50.906;6.972;2024-02-04T08:17:16;101674.59;;;9.47;100.00
54194;BME280;40102;50.906;6.972;2024-02-04T08:19:41;101671.69;;;9.53;100.00
54194;BME280;40102;50.906;6.972;2024-02-04T08:22:07;101661.00;;;9.53;100.00
54194;BME280;40102;50.906;6.972;2024-02-04T08:24:32;101656.66;;;9.51;100.00
54194;BME280;40102;50.906;6.972;2024-02-04T08:26:58;101666.47;;;9.50;100.00
54194;BME280;40102;50.906;6.972;2024-02-04T08:29:24;101663.69;;;9.53;100.00
54194;BME280;40102;50.906;6.972;2024-02-04T08:31:52;101658.13;;;9.59;100.00
54194;BME280;40102;50.906;6.972;2024-02-04T08:34:17;101665.41;;;9.54;100.00
54194;BME280;40102;50.906;6.972;2024-02-04T08:36:45;101668.03;;;9.56;100.00
54194;BME280;40102;50.906;6.972;2024-02-04T08:39:10;101663.69;;;9.53;100.00
54194;BME280;40102;50.906;6.972;2024-02-04T08:41:36;101660.03;;;9.56;100.00
54194;BME280;40102;50.906;6.972;2024-02-04T08:44:01;101673.28;;;9.59;100.00
54194;BME280;40102;50.906;6.972;2024-02-04T08:46:26;101681.41;;;9.56;100.00
54194;BME280;40102;50.906;6.972;2024-02-04T08:48:52;101681.16;;;9.62;100.00
54194;BME280;40102;50.906;6.972;2024-02-04T08:51:17;101684.00;;;9.57;100.00
54194;BME280;40102;50.906;6.972;2024-02-04T08:53:44;101666.19;;;9.58;100.00
54194;BME280;40102;50.906;6.972;2024-02-04T08:56:09;101654.63;;;9.57;100.00
54194;BME280;40102;50.906;6.972;2024-02-04T08:58:35;101667.88;;;9.60;100.00
54194;BME280;40102;50.906;6.972;2024-02-04T09:01:03;101671.47;;;9.59;100.00
54194;BME280;40102;50.906;6.972;2024-02-04T09:03:28;101684.81;;;9.59;100.00
54194;BME280;40102;50.906;6.972;2024-02-04T09:05:54;101669.66;;;9.60;100.00
54194;BME280;40102;50.906;6.972;2024-02-04T09:08:20;101672.22;;;9.63;100.00
54194;BME280;40102;50.906;6.972;2024-02-04T09:10:50;101667.81;;;9.62;100.00
54194;BME280;40102;50.906;6.972;2024-02-04T09:13:18;101656.44;;;9.57;100.00
54194;BME280;40102;50.906;6.972;2024-02-04T09:15:43;101661.59;;;9.61;100.00
54194;BME280;40102;50.906;6.972;2024-02-04T09:18:09;101670.53;;;9.60;100.00
54194;BME280;40102;50.906;6.972;2024-02-04T09:20:34;101657.19;;;9.60;100.00
54194;BME280;40102;50.906;6.972;2024-02-04T09:23:02;101655.38;;;9.61;100.00
54194;BME280;40102;50.906;6.972;2024-02-04T09:25:28;101665.09;;;9.63;100.00
54194;BME280;40102;50.906;6.972;2024-02-04T09:27:54;101681.75;;;9.70;100.00
54194;BME280;40102;50.906;6.972;2024-02-04T09:30:19;101664.91;;;9.68;100.00
54194;BME280;40102;50.906;6.972;2024-02-04T09:32:45;101681.81;;;9.68;100.00
54194;BME280;40102;50.906;6.972;2024-02-04T09:35:11;101667.41;;;9.72;100.00
54194;BME280;40102;50.906;6.972;2024-02-04T09:37:37;101697.56;;;9.76;100.00
54194;BME280;40102;50.906;6.972;2024-02-04T09:40:03;101684.44;;;9.70;100.00
54194;BME280;40102;50.906;6.972;2024-02-04T09:42:29;101695.00;;;9.73;100.00
54194;BME280;40102;50.906;6.972;2024-02-04T09:44:57;101702.81;;;9.79;100.00
54194;BME280;40102;50.906;6.972;2024-02-04T09:47:23;101698.31;;;9.80;100.00
54194;BME280;40102;50.906;6.972;2024-02-04T09:49:48;101687.59;;;9.81;100.00
54194;BME280;40102;50.906;6.972;2024-02-04T09:52:18;101689.38;;;9.81;100.00
54194;BME280;40102;50.906;6.972;2024-02-04T09:54:48;101679.63;;;9.80;100.00
54194;BME280;40102;50.906;6.972;2024-02-04T09:57:16;101699.09;;;9.83;100.00
54194;BME280;40102;50.906;6.972;2024-02-04T09:59:43;101688.56;;;9.79;100.00
54194;BME280;40102;50.906;6.972;2024-02-04T10:02:12;101692.94;;;9.81;100.00
54194;BME280;40102;50.906;6.972;2024-02-04T10:04:38;101690.38;;;9.78;100.00
54194;BME280;40102;50.906;6.972;2024-02-04T10:07:04;101682.25;;;9.81;100.00
54194;BME280;40102;50.906;6.972;2024-02-04T10:09:29;101666.31;;;9.78;100.00
54194;BME280;40102;50.906;6.972;2024-02-04T10:11:56;101689.09;;;9.88;100.00
54194;BME280;40102;50.906;6.972;2024-02-04T10:14:21;101653.72;;;9.82;100.00
54194;BME280;40102;50.906;6.972;2024-02-04T10:16:47;101690.19;;;9.83;100.00
54194;BME280;40102;50.906;6.972;2024-02-04T10:19:12;101669.56;;;9.86;100.00
54194;BME280;40102;50.906;6.972;2024-02-04T10:21:37;101663.31;;;9.87;100.00
54194;BME280;40102;50.906;6.972;2024-02-04T10:24:03;101678.47;;;9.87;100.00
54194;BME280;40102;50.906;6.972;2024-02-04T10:26:29;101688.88;;;9.94;100.00
54194;BME280;40102;50.906;6.972;2024-02-04T10:28:59;101676.50;;;9.92;100.00
54194;BME280;40102;50.906;6.972;2024-02-04T10:31:26;101673.19;;;9.85;100.00
54194;BME280;40102;50.906;6.972;2024-02-04T10:33:52;101680.69;;;9.99;100.00
54194;BME280;40102;50.906;6.972;2024-02-04T10:36:17;101679.00;;;9.96;100.00
54194;BME280;40102;50.906;6.972;2024-02-04T10:38:43;101679.03;;;9.95;100.00
54194;BME280;40102;50.906;6.972;2024-02-04T10:41:14;101672.66;;;9.99;100.00
54194;BME280;40102;50.906;6.972;2024-02-04T10:43:42;101672.88;;;9.93;100.00
54194;BME280;40102;50.906;6.972;2024-02-04T10:46:18;101667.53;;;9.93;100.00
54194;BME280;40102;50.906;6.972;2024-02-04T10:48:47;101675.50;;;9.94;100.00
54194;BME280;40102;50.906;6.972;2024-02-04T10:51:14;101666.63;;;9.94;100.00
54194;BME280;40102;50.906;6.972;2024-02-04T10:53:45;101667.72;;;9.88;100.00
54194;BME280;40102;50.906;6.972;2024-02-04T10:56:22;101667.25;;;10.00;100.00
54194;BME280;40102;50.906;6.972;2024-02-04T10:58:52;101674.56;;;9.95;100.00
54194;BME280;40102;50.906;6.972;2024-02-04T11:01:18;101664.88;;;9.93;100.00
54194;BME280;40102;50.906;6.972;2024-02-04T11:03:45;101670.97;;;9.96;100.00
54194;BME280;40102;50.906;6.972;2024-02-04T11:06:12;101653.72;;;10.05;100.00
54194;BME280;40102;50.906;6.972;2024-02-04T11:08:38;101668.13;;;10.01;100.00
54194;BME280;40102;50.906;6.972;2024-02-04T11:11:04;101655.63;;;10.01;100.00
54194;BME280;40102;50.906;6.972;2024-02-04T11:13:30;101662.66;;;10.04;100.00
54194;BME280;40102;50.906;6.972;2024-02-04T11:15:58;101661.09;;;9.98;100.00
54194;BME280;40102;50.906;6.972;2024-02-04T11:26:25;101679.34;;;10.11;100.00
54194;BME280;40102;50.906;6.972;2024-02-04T11:28:51;101665.28;;;10.05;100.00
54194;BME280;40102;50.906;6.972;2024-02-04T11:31:19;101642.97;;;10.06;100.00
54194;BME280;40102;50.906;6.972;2024-02-04T11:33:45;101655.28;;;10.11;100.00
54194;BME280;40102;50.906;6.972;2024-02-04T11:36:14;101638.31;;;10.12;100.00
54194;BME280;40102;50.906;6.972;2024-02-04T11:38:40;101652.59;;;10.11;100.00
54194;BME280;40102;50.906;6.972;2024-02-04T11:41:06;101637.44;;;10.11;100.00
54194;BME280;40102;50.906;6.972;2024-02-04T11:43:36;101631.50;;;10.03;100.00
54194;BME280;40102;50.906;6.972;2024-02-04T11:46:03;101623.38;;;10.06;100.00
54194;BME280;40102;50.906;6.972;2024-02-04T11:48:35;101616.34;;;10.03;100.00
54194;BME280;40102;50.906;6.972;2024-02-04T11:51:03;101618.16;;;10.03;100.00
54194;BME280;40102;50.906;6.972;2024-02-04T11:53:29;101612.88;;;10.01;100.00
54194;BME280;40102;50.906;6.972;2024-02-04T11:55:58;101603.97;;;10.01;100.00
54194;BME280;40102;50.906;6.972;2024-02-04T11:58:31;101596.88;;;10.00;100.00
54194;BME280;40102;50.906;6.972;2024-02-04T12:00:57;101597.88;;;9.97;100.00
54194;BME280;40102;50.906;6.972;2024-02-04T12:03:49;101606.53;;;10.04;100.00
54194;BME280;40102;50.906;6.972;2024-02-04T12:06:18;101588.81;;;10.01;100.00
54194;BME280;40102;50.906;6.972;2024-02-04T12:08:44;101589.69;;;10.02;100.00
54194;BME280;40102;50.906;6.972;2024-02-04T12:11:10;101588.00;;;9.99;100.00
54194;BME280;40102;50.906;6.972;2024-02-04T12:13:37;101585.84;;;10.09;100.00
54194;BME280;40102;50.906;6.972;2024-02-04T12:16:06;101591.25;;;10.07;100.00
54194;BME280;40102;50.906;6.972;2024-02-04T12:18:33;101604.38;;;10.14;100.00
54194;BME280;40102;50.906;6.972;2024-02-04T12:20:59;101609.59;;;10.17;100.00
54194;BME280;40102;50.906;6.972;2024-02-04T12:23:25;101583.91;;;10.13;100.00
54194;BME280;40102;50.906;6.972;2024-02-04T12:25:51;101605.16;;;10.16;100.00
54194;BME280;40102;50.906;6.972;2024-02-04T12:28:17;101584.72;;;10.15;100.00
54194;BME280;40102;50.906;6.972;2024-02-04T12:30:55;101599.81;;;10.16;100.00
54194;BME280;40102;50.906;6.972;2024-02-04T12:33:21;101587.63;;;10.09;100.00
54194;BME280;40102;50.906;6.972;2024-02-04T12:35:51;101595.41;;;10.15;100.00
54194;BME280;40102;50.906;6.972;2024-02-04T12:38:17;101582.16;;;10.12;100.00
54194;BME280;40102;50.906;6.972;2024-02-04T12:40:45;101575.06;;;10.11;100.00
54194;BME280;40102;50.906;6.972;2024-02-04T12:43:14;101574.28;;;10.09;100.00
54194;BME280;40102;50.906;6.972;2024-02-04T12:45:42;101575.06;;;10.11;100.00
54194;BME280;40102;50.906;6.972;2024-02-04T12:48:09;101561.66;;;10.12;100.00
54194;BME280;40102;50.906;6.972;2024-02-04T12:51:23;101550.47;;;10.02;100.00
54194;BME280;40102;50.906;6.972;2024-02-04T12:53:32;101544.56;;;9.94;100.00
54194;BME280;40102;50.906;6.972;2024-02-04T12:56:11;101567.81;;;10.14;100.00